Adner, Louisiana
Current Conditions -  °F | °C
As of 2:58 PM on Sunday 23 Nov 2014 (Local Time) from KBAD Reporting Station
Clear Clear  
Wind Chill: 73°   Ceiling: Unl
Heat Index: 73°   Visibility: 10mi
Dew Point: 59°   Wind: 15mph
Humidity: 61%   Direction: 200°SSW
Pressure: 29.42"   Gusts: NA
Location:  32.5391°N, 93.5257°W
Report Text: KBAD 232058Z AUTO 20013KT 10SM CLR 23/15 A2942 RMK AO2 SLP964 T02260148 57027
Loading
Personal Weather Stations






























Interactive Weather Map New forecast layout! Learn more

10-Day Weather Forecast

Advertisements
Track Severe Weather on mobile